Hovedside
METAR-TAF:

METAR-TAF

Lufthavner :

Vidsel, Sverige

breddegrad: 65-52N, lengdegrad: 020-08E, høyde over havet: 180 m

Gjeldene værobservasjon

Denne rapporten ble laget for 36 minutter siden, klokken 04:20 UTC
Vind 10 kt fra Vest-nordvest, skiftende mellom Vest og Nord-nordvest
Temperatur 11°C
Luftfuktighet 62%
Trykk 1000 hPa
Sikt 10 km eller mer

METAR: ESPE 210420Z AUTO 30010KT 270V330 9999 NCD 11/04 Q1000

Tid: 06:56 (04:56 UTC)

Varsel

Denne rapporten ble laget for 15 timer og 36 minutter siden, klokken 13:20 UTC
Varsel gyldig fra 20. klokken 12 UTC til 20. klokken 14 UTC
Vind 13 kt fra Vest-sørvest
Sikt 10 km eller mer
Spredte skyer i en høyde av 5000 ft, Tårnskyer (cumulus).
lette regnbyger

TAF: ESPE 201320Z 2012/2014 25013KT 9999 -SHRA SCT050TCU RMK MIL

Værobservasjoner og værvarsel for over 4000 flyplasser (METAR- og TAF-rapporter).

Tilgjengelige stasjoner er representert av de røde og gule prikkene på kartet.

Hold musepekeren over prikken for å se navnet på stasjonen.

Klikk så for å se værobservasjoner og -varsler.

For å forandre kartet kan du klikke på den grønne knappen med svart kryss for å zoome inn, på den grønne knappen med strek for å zoome ut, eller på de grønne pilene for å se tilstøtende kart.


METAR-TAF: